Time;durP1;ratioP1;P1;durP2;ratioP2;P2;SDS_P1;SDS_P2;PMS_P1;PMS_P2;Temp;Humidity;BMP_temperature;BMP_pressure;BME280_temperature;BME280_humidity;BME280_pressure;Samples;Min_cycle;Max_cycle;Signal;HPM_P1;HPM_P2
2022/12/07 00:00:27;;;;;;;;;;;2.80;99.90;;;;;;5025906;28;19913;-64
2022/12/07 00:02:53;;;;;;;;;;;2.90;99.90;;;;;;5027009;28;20358;-64
2022/12/07 00:05:18;;;;;;;;;;;2.90;99.90;;;;;;4994313;28;19924;-64
2022/12/07 00:07:44;;;;;;;;;;;2.90;99.90;;;;;;5027448;28;20023;-64
2022/12/07 00:10:09;;;;;;;;;;;3.00;99.90;;;;;;5020466;28;20000;-63
2022/12/07 00:12:35;;;;;;;;;;;3.00;99.90;;;;;;5026556;28;20354;-64
2022/12/07 00:15:01;;;;;;;;;;;3.00;99.90;;;;;;5028177;28;20477;-64
2022/12/07 00:17:26;;;;;;;;;;;3.00;99.90;;;;;;5010625;28;19912;-64
2022/12/07 00:19:52;;;;;;;;;;;3.10;99.90;;;;;;5026900;28;19908;-64
2022/12/07 00:22:18;;;;;;;;;;;3.00;99.90;;;;;;5026951;28;19913;-64
2022/12/07 00:24:44;;;;;;;;;;;3.00;99.90;;;;;;5027755;28;19917;-66
2022/12/07 00:27:10;;;;;;;;;;;3.10;99.90;;;;;;5022470;28;19917;-67
2022/12/07 00:29:36;;;;;;;;;;;3.10;99.90;;;;;;5026452;28;19913;-66
2022/12/07 00:32:02;;;;;;;;;;;3.10;99.90;;;;;;5011164;28;19913;-66
2022/12/07 00:34:28;;;;;;;;;;;3.10;99.90;;;;;;5011163;28;19913;-67
2022/12/07 00:36:54;;;;;;;;;;;3.10;99.90;;;;;;5023358;28;19920;-66
2022/12/07 00:39:19;;;;;;;;;;;3.20;99.90;;;;;;5009469;28;19921;-66
2022/12/07 00:41:46;;;;;;;;;;;3.20;99.90;;;;;;5028184;28;19970;-66
2022/12/07 00:44:12;;;;;;;;;;;3.20;99.90;;;;;;5027987;28;19913;-66
2022/12/07 00:46:37;;;;;;;;;;;3.20;99.90;;;;;;5031223;28;19928;-66
2022/12/07 00:49:03;;;;;;;;;;;3.20;99.90;;;;;;5030015;28;19924;-66
2022/12/07 00:51:28;;;;;;;;;;;3.20;99.90;;;;;;5024804;28;19913;-66
2022/12/07 00:53:54;;;;;;;;;;;3.20;99.90;;;;;;5013919;28;19913;-67
2022/12/07 00:56:21;;;;;;;;;;;3.20;99.90;;;;;;5031234;28;20587;-65
2022/12/07 00:58:53;;;;;;;;;;;3.20;99.90;;;;;;5012693;28;19916;-67
2022/12/07 01:01:19;;;;;;;;;;;3.30;99.90;;;;;;5031147;28;19913;-67
2022/12/07 01:03:45;;;;;;;;;;;3.30;99.90;;;;;;5027840;28;20297;-67
2022/12/07 01:06:13;;;;;;;;;;;3.30;99.90;;;;;;5031385;28;19967;-67
2022/12/07 01:08:39;;;;;;;;;;;3.30;99.90;;;;;;5030659;28;19960;-65
2022/12/07 01:11:05;;;;;;;;;;;3.30;99.90;;;;;;5028076;28;19955;-66
2022/12/07 01:13:31;;;;;;;;;;;3.40;99.90;;;;;;5030879;28;20311;-67
2022/12/07 01:15:58;;;;;;;;;;;3.40;99.90;;;;;;5030525;28;19924;-66
2022/12/07 01:18:23;;;;;;;;;;;3.30;99.90;;;;;;5012893;28;20066;-66
2022/12/07 01:20:58;;;;;;;;;;;3.30;99.90;;;;;;5030671;28;20889;-67
2022/12/07 01:23:24;;;;;;;;;;;3.30;99.90;;;;;;5013921;28;20000;-65
2022/12/07 01:25:56;;;;;;;;;;;3.30;99.90;;;;;;5013254;28;20016;-66
2022/12/07 01:28:22;;;;;;;;;;;3.30;99.90;;;;;;5014429;28;19913;-66
2022/12/07 01:30:57;;;;;;;;;;;3.40;99.90;;;;;;5030557;28;20334;-66
2022/12/07 01:33:23;;;;;;;;;;;3.30;99.90;;;;;;5011977;28;19924;-66
2022/12/07 01:35:49;;;;;;;;;;;3.40;99.90;;;;;;5030193;28;19912;-65
2022/12/07 01:38:14;;;;;;;;;;;3.40;99.90;;;;;;5029886;28;19932;-66
2022/12/07 01:40:41;;;;;;;;;;;3.40;99.90;;;;;;5029077;28;19933;-66
2022/12/07 01:43:17;;;;;;;;;;;3.40;99.90;;;;;;5031041;28;19974;-65
2022/12/07 01:45:43;;;;;;;;;;;3.40;99.90;;;;;;5013656;28;19975;-66
2022/12/07 01:48:09;;;;;;;;;;;3.40;99.90;;;;;;5029296;28;19913;-67
2022/12/07 01:50:34;;;;;;;;;;;3.40;99.90;;;;;;5031203;28;20382;-66
2022/12/07 01:53:01;;;;;;;;;;;3.40;99.90;;;;;;5027321;28;19924;-66
2022/12/07 01:55:27;;;;;;;;;;;3.40;99.90;;;;;;5029845;28;19917;-66
2022/12/07 01:57:53;;;;;;;;;;;3.40;99.90;;;;;;5029266;28;20480;-65
2022/12/07 02:00:18;;;;;;;;;;;3.40;99.90;;;;;;5028221;28;20286;-65
2022/12/07 02:02:48;;;;;;;;;;;3.40;99.90;;;;;;5029327;28;19971;-66
2022/12/07 02:05:13;;;;;;;;;;;3.40;99.90;;;;;;5029420;28;20037;-65
2022/12/07 02:07:39;;;;;;;;;;;3.40;99.90;;;;;;5030066;28;19993;-67
2022/12/07 02:10:12;;;;;;;;;;;3.40;99.90;;;;;;5029390;28;19913;-67
2022/12/07 02:12:38;;;;;;;;;;;3.40;99.90;;;;;;5019521;28;19913;-67
2022/12/07 02:15:03;;;;;;;;;;;3.40;99.90;;;;;;5028424;28;19924;-66
2022/12/07 02:17:37;;;;;;;;;;;3.40;99.90;;;;;;5029664;28;20287;-66
2022/12/07 02:20:09;;;;;;;;;;;3.40;99.90;;;;;;5023904;28;19924;-66
2022/12/07 02:22:38;;;;;;;;;;;3.40;99.90;;;;;;5030098;28;19970;-66
2022/12/07 02:25:15;;;;;;;;;;;3.40;99.90;;;;;;5029210;28;19975;-64
2022/12/07 02:27:56;;;;;;;;;;;3.40;99.90;;;;;;5024154;28;19971;-66
2022/12/07 02:30:22;;;;;;;;;;;3.40;99.90;;;;;;5029011;28;20327;-66
2022/12/07 02:32:57;;;;;;;;;;;3.40;99.90;;;;;;5029432;28;19966;-65
2022/12/07 02:35:28;;;;;;;;;;;3.50;99.90;;;;;;5028294;28;20328;-66
2022/12/07 02:37:59;;;;;;;;;;;3.40;99.90;;;;;;5022892;28;19958;-66
2022/12/07 02:40:27;;;;;;;;;;;3.50;99.90;;;;;;5029201;28;19917;-65
2022/12/07 02:43:13;;;;;;;;;;;3.40;99.90;;;;;;5023512;28;20256;-66
2022/12/07 02:45:39;;;;;;;;;;;3.50;99.90;;;;;;5031533;28;19978;-67
2022/12/07 02:48:05;;;;;;;;;;;3.50;99.90;;;;;;5028804;28;19983;-66
2022/12/07 02:50:30;;;;;;;;;;;3.50;99.90;;;;;;5027257;28;19925;-66
2022/12/07 02:52:56;;;;;;;;;;;3.50;99.90;;;;;;5011290;28;19913;-66
2022/12/07 02:55:24;;;;;;;;;;;3.50;99.90;;;;;;5029960;28;19913;-66
2022/12/07 02:57:53;;;;;;;;;;;3.50;99.90;;;;;;5022946;28;19913;-65
2022/12/07 03:00:18;;;;;;;;;;;3.50;99.90;;;;;;5029751;28;19975;-66
2022/12/07 03:02:58;;;;;;;;;;;3.50;99.90;;;;;;5027991;28;19913;-66
2022/12/07 03:05:33;;;;;;;;;;;3.60;99.90;;;;;;5017807;28;20605;-66
2022/12/07 03:07:58;;;;;;;;;;;3.60;99.90;;;;;;5027351;28;19920;-66
2022/12/07 03:10:24;;;;;;;;;;;3.60;99.90;;;;;;5027927;28;19923;-66
2022/12/07 03:13:03;;;;;;;;;;;3.70;99.90;;;;;;5027189;28;20276;-66
2022/12/07 03:15:34;;;;;;;;;;;3.70;99.90;;;;;;5028330;28;19913;-66
2022/12/07 03:17:59;;;;;;;;;;;3.70;99.90;;;;;;5016340;28;19974;-65
2022/12/07 03:20:25;;;;;;;;;;;3.80;99.90;;;;;;5026531;28;19916;-66
2022/12/07 03:22:51;;;;;;;;;;;3.80;99.90;;;;;;5028569;28;19913;-66
2022/12/07 03:25:16;;;;;;;;;;;3.80;99.90;;;;;;5021718;28;19923;-66
2022/12/07 03:27:44;;;;;;;;;;;3.80;99.90;;;;;;5025495;28;19917;-65
2022/12/07 03:30:10;;;;;;;;;;;3.80;99.90;;;;;;5028216;28;19920;-65
2022/12/07 03:32:47;;;;;;;;;;;3.90;99.90;;;;;;5022825;28;19920;-65
2022/12/07 03:35:16;;;;;;;;;;;3.90;99.90;;;;;;5028110;28;19963;-66
2022/12/07 03:37:45;;;;;;;;;;;3.90;99.90;;;;;;5025948;28;20338;-65
2022/12/07 03:40:28;;;;;;;;;;;3.90;99.90;;;;;;5028025;28;19913;-66
2022/12/07 03:42:54;;;;;;;;;;;3.90;99.90;;;;;;5027446;28;20004;-65
2022/12/07 03:45:20;;;;;;;;;;;4.00;99.90;;;;;;5011563;28;20004;-65
2022/12/07 03:47:47;;;;;;;;;;;4.00;99.90;;;;;;5027809;28;19917;-65
2022/12/07 03:50:28;;;;;;;;;;;4.00;99.90;;;;;;5027241;28;19975;-65
2022/12/07 03:53:03;;;;;;;;;;;4.00;99.90;;;;;;5027937;28;19971;-64
2022/12/07 03:55:35;;;;;;;;;;;4.00;99.90;;;;;;5021638;28;19913;-66
2022/12/07 03:58:03;;;;;;;;;;;4.00;99.90;;;;;;5028014;28;19913;-66
2022/12/07 04:00:28;;;;;;;;;;;4.00;99.90;;;;;;5022467;28;19917;-64
2022/12/07 04:02:54;;;;;;;;;;;4.00;99.90;;;;;;5028195;28;20606;-66
2022/12/07 04:05:20;;;;;;;;;;;4.00;99.90;;;;;;5019695;28;20332;-65
2022/12/07 04:07:45;;;;;;;;;;;4.00;99.90;;;;;;5026697;28;19920;-64
2022/12/07 04:10:11;;;;;;;;;;;4.00;99.90;;;;;;4997557;28;19980;-65
2022/12/07 04:12:37;;;;;;;;;;;4.10;99.90;;;;;;5027831;28;19924;-65
2022/12/07 04:15:03;;;;;;;;;;;4.10;99.90;;;;;;5028060;28;19919;-65
2022/12/07 04:17:28;;;;;;;;;;;4.10;99.90;;;;;;5024595;28;19939;-66
2022/12/07 04:19:54;;;;;;;;;;;4.10;99.90;;;;;;5020944;28;19913;-67
2022/12/07 04:22:20;;;;;;;;;;;4.10;99.90;;;;;;5031342;28;19913;-67
2022/12/07 04:24:45;;;;;;;;;;;4.10;99.90;;;;;;5032092;28;19996;-66
2022/12/07 04:27:11;;;;;;;;;;;4.10;99.90;;;;;;5028089;28;20353;-66
2022/12/07 04:29:36;;;;;;;;;;;4.10;99.90;;;;;;5030384;28;19924;-66
2022/12/07 04:32:02;;;;;;;;;;;4.10;99.90;;;;;;5025189;28;19924;-66
2022/12/07 04:34:28;;;;;;;;;;;4.10;99.90;;;;;;5027521;28;19924;-67
2022/12/07 04:36:53;;;;;;;;;;;4.10;99.90;;;;;;5025013;28;19917;-65
2022/12/07 04:39:20;;;;;;;;;;;4.10;99.90;;;;;;5027005;28;19921;-66
2022/12/07 04:41:46;;;;;;;;;;;4.10;99.90;;;;;;5031842;28;19963;-66
2022/12/07 04:44:11;;;;;;;;;;;4.10;99.90;;;;;;5031808;28;19978;-66
2022/12/07 04:46:37;;;;;;;;;;;4.10;99.90;;;;;;5027784;28;19917;-67
2022/12/07 04:49:03;;;;;;;;;;;4.10;99.90;;;;;;5031562;28;19925;-65
2022/12/07 04:51:28;;;;;;;;;;;4.10;99.90;;;;;;5012494;28;20047;-65
2022/12/07 04:53:54;;;;;;;;;;;4.10;99.90;;;;;;5029773;28;19912;-66
2022/12/07 04:56:20;;;;;;;;;;;4.10;99.90;;;;;;5029862;28;19913;-66
2022/12/07 04:58:46;;;;;;;;;;;4.10;99.90;;;;;;5027823;28;20318;-66
2022/12/07 05:01:12;;;;;;;;;;;4.10;99.90;;;;;;5005698;28;19913;-66
2022/12/07 05:03:38;;;;;;;;;;;4.10;99.90;;;;;;5029244;28;19913;-66
2022/12/07 05:06:04;;;;;;;;;;;4.20;99.90;;;;;;5029662;28;19908;-65
2022/12/07 05:08:30;;;;;;;;;;;4.10;99.90;;;;;;5031780;28;19912;-65
2022/12/07 05:10:55;;;;;;;;;;;4.10;99.90;;;;;;5013109;28;19917;-66
2022/12/07 05:13:21;;;;;;;;;;;4.10;99.90;;;;;;5027511;28;20676;-66
2022/12/07 05:15:47;;;;;;;;;;;4.10;99.90;;;;;;5030393;28;19913;-66
2022/12/07 05:18:12;;;;;;;;;;;4.10;99.90;;;;;;5030303;28;19912;-65
2022/12/07 05:20:38;;;;;;;;;;;4.10;99.90;;;;;;5030304;28;19919;-67
2022/12/07 05:23:04;;;;;;;;;;;4.10;99.90;;;;;;5029954;28;19913;-67
2022/12/07 05:25:30;;;;;;;;;;;4.00;99.90;;;;;;5030498;28;19913;-66
2022/12/07 05:27:56;;;;;;;;;;;4.00;99.90;;;;;;5030069;28;20228;-65
2022/12/07 05:30:22;;;;;;;;;;;4.00;99.90;;;;;;5030471;28;19923;-66
2022/12/07 05:32:47;;;;;;;;;;;4.00;99.90;;;;;;5024451;28;20055;-66
2022/12/07 05:35:13;;;;;;;;;;;4.00;99.90;;;;;;5031108;28;20714;-66
2022/12/07 05:37:39;;;;;;;;;;;4.00;99.90;;;;;;5009665;28;19932;-65
2022/12/07 05:40:05;;;;;;;;;;;4.00;99.90;;;;;;5030593;28;19951;-66
2022/12/07 05:42:30;;;;;;;;;;;4.00;99.90;;;;;;5026772;28;19913;-66
2022/12/07 05:44:56;;;;;;;;;;;4.00;99.90;;;;;;5030538;28;19913;-66
2022/12/07 05:47:21;;;;;;;;;;;4.00;99.90;;;;;;5031419;28;19928;-66
2022/12/07 05:49:47;;;;;;;;;;;3.90;99.90;;;;;;5028456;28;19913;-66
2022/12/07 05:52:13;;;;;;;;;;;3.90;99.90;;;;;;5029701;28;19917;-66
2022/12/07 05:54:39;;;;;;;;;;;3.90;99.90;;;;;;5024841;28;19913;-66
2022/12/07 05:57:04;;;;;;;;;;;3.90;99.90;;;;;;5024988;28;20357;-66
2022/12/07 05:59:30;;;;;;;;;;;3.90;99.90;;;;;;5031382;28;19912;-66
2022/12/07 06:02:02;;;;;;;;;;;3.90;99.90;;;;;;5006804;28;19913;-65
2022/12/07 06:04:28;;;;;;;;;;;3.90;99.90;;;;;;5030744;28;19952;-66
2022/12/07 06:06:54;;;;;;;;;;;3.90;99.90;;;;;;5013089;28;19921;-65
2022/12/07 06:09:20;;;;;;;;;;;3.90;99.90;;;;;;5027532;28;20223;-67
2022/12/07 06:14:29;;;;;;;;;;;3.90;99.90;;;;;;5025829;28;19913;-66
2022/12/07 06:16:55;;;;;;;;;;;3.90;99.90;;;;;;5013378;28;19923;-65
2022/12/07 06:19:21;;;;;;;;;;;3.90;99.90;;;;;;5027386;28;19916;-66
2022/12/07 06:21:46;;;;;;;;;;;3.90;99.90;;;;;;5027994;28;19999;-66
2022/12/07 06:24:12;;;;;;;;;;;3.90;99.90;;;;;;5029460;28;20290;-67
2022/12/07 06:26:38;;;;;;;;;;;3.90;99.90;;;;;;5029111;28;19970;-65
2022/12/07 06:29:04;;;;;;;;;;;3.90;99.90;;;;;;5012773;28;19924;-66
2022/12/07 06:31:29;;;;;;;;;;;3.80;99.90;;;;;;5027914;28;19913;-66
2022/12/07 06:34:00;;;;;;;;;;;3.70;99.90;;;;;;5029148;28;20006;-66
2022/12/07 06:36:26;;;;;;;;;;;3.60;99.90;;;;;;5029109;28;19920;-66
2022/12/07 06:38:51;;;;;;;;;;;3.50;99.90;;;;;;5028817;28;19921;-67
2022/12/07 06:41:17;;;;;;;;;;;3.50;99.90;;;;;;5030168;28;19917;-66
2022/12/07 06:43:43;;;;;;;;;;;3.40;99.90;;;;;;5023341;28;19925;-67
2022/12/07 06:46:08;;;;;;;;;;;3.40;99.90;;;;;;5030694;28;20239;-66
2022/12/07 06:48:34;;;;;;;;;;;3.40;99.90;;;;;;5029298;28;19913;-66
2022/12/07 06:50:59;;;;;;;;;;;3.30;99.90;;;;;;5024575;28;19913;-65
2022/12/07 06:53:25;;;;;;;;;;;3.40;99.90;;;;;;5028062;28;20725;-66
2022/12/07 06:55:50;;;;;;;;;;;3.30;99.90;;;;;;5028608;28;19913;-66
2022/12/07 06:58:16;;;;;;;;;;;3.30;99.90;;;;;;5025738;28;19948;-66
2022/12/07 07:00:42;;;;;;;;;;;3.40;99.90;;;;;;5028826;28;19913;-65
2022/12/07 07:03:08;;;;;;;;;;;3.40;99.90;;;;;;5028792;28;19987;-65
2022/12/07 07:05:33;;;;;;;;;;;3.40;99.90;;;;;;5029540;28;19913;-66
2022/12/07 07:07:59;;;;;;;;;;;3.40;99.90;;;;;;5000601;28;19917;-66
2022/12/07 07:10:25;;;;;;;;;;;3.40;99.90;;;;;;5029521;28;20315;-66
2022/12/07 07:12:50;;;;;;;;;;;3.50;99.90;;;;;;5029512;28;19943;-67
2022/12/07 07:15:16;;;;;;;;;;;3.50;99.90;;;;;;5029201;28;19913;-65
2022/12/07 07:17:41;;;;;;;;;;;3.50;99.90;;;;;;5024740;28;20279;-66
2022/12/07 07:20:07;;;;;;;;;;;3.50;99.90;;;;;;5012436;28;20307;-66
2022/12/07 07:22:33;;;;;;;;;;;3.50;99.90;;;;;;5029638;28;19920;-66
2022/12/07 07:24:58;;;;;;;;;;;3.50;99.90;;;;;;5024459;28;19917;-66
2022/12/07 07:27:24;;;;;;;;;;;3.50;99.90;;;;;;5028356;28;20357;-66
2022/12/07 07:29:50;;;;;;;;;;;3.50;99.90;;;;;;5027856;28;20324;-67
2022/12/07 07:32:15;;;;;;;;;;;3.50;99.90;;;;;;5027450;28;20346;-66
2022/12/07 07:34:41;;;;;;;;;;;3.50;99.90;;;;;;5029726;28;19916;-67
2022/12/07 07:37:06;;;;;;;;;;;3.50;99.90;;;;;;5023850;28;19914;-67
2022/12/07 07:39:32;;;;;;;;;;;3.50;99.90;;;;;;5026832;28;20301;-66
2022/12/07 07:41:57;;;;;;;;;;;3.50;99.90;;;;;;5022602;28;19919;-66
2022/12/07 07:44:24;;;;;;;;;;;3.50;99.90;;;;;;5007946;28;19952;-66
2022/12/07 07:46:51;;;;;;;;;;;3.50;99.90;;;;;;5019950;28;19972;-65
2022/12/07 07:49:17;;;;;;;;;;;3.50;99.90;;;;;;5028051;28;20327;-66
2022/12/07 07:51:42;;;;;;;;;;;3.50;99.90;;;;;;5027128;28;19913;-67
2022/12/07 07:54:09;;;;;;;;;;;3.60;99.90;;;;;;5027865;28;19913;-65
2022/12/07 07:56:35;;;;;;;;;;;3.60;99.90;;;;;;5031242;28;19913;-66
2022/12/07 07:59:01;;;;;;;;;;;3.60;99.90;;;;;;5010231;28;20369;-65
2022/12/07 08:01:26;;;;;;;;;;;3.60;99.90;;;;;;5014795;28;19952;-66
2022/12/07 08:03:52;;;;;;;;;;;3.60;99.90;;;;;;5031668;28;20007;-67
2022/12/07 08:06:17;;;;;;;;;;;3.60;99.90;;;;;;5030608;28;19917;-67
2022/12/07 08:08:43;;;;;;;;;;;3.60;99.90;;;;;;5033131;28;19917;-67
2022/12/07 08:11:10;;;;;;;;;;;3.60;99.90;;;;;;5025876;28;19952;-66
2022/12/07 08:13:36;;;;;;;;;;;3.60;99.90;;;;;;5030497;28;19920;-67
2022/12/07 08:16:05;;;;;;;;;;;3.60;99.90;;;;;;5031853;28;19913;-66
2022/12/07 08:18:31;;;;;;;;;;;3.60;99.90;;;;;;5010045;28;19913;-67
2022/12/07 08:21:00;;;;;;;;;;;3.60;99.90;;;;;;5015826;28;20366;-67
2022/12/07 08:23:26;;;;;;;;;;;3.60;99.90;;;;;;5015433;28;19924;-67
2022/12/07 08:25:52;;;;;;;;;;;3.60;99.90;;;;;;5033104;28;19917;-68
2022/12/07 08:28:17;;;;;;;;;;;3.60;99.90;;;;;;5031689;28;19927;-67
2022/12/07 08:30:43;;;;;;;;;;;3.70;99.90;;;;;;5032562;28;20549;-67
2022/12/07 08:33:09;;;;;;;;;;;3.60;99.90;;;;;;5031496;28;20024;-66
2022/12/07 08:35:34;;;;;;;;;;;3.60;99.90;;;;;;5031520;28;19974;-67
2022/12/07 08:38:01;;;;;;;;;;;3.60;99.90;;;;;;5029322;28;19970;-66
2022/12/07 08:40:27;;;;;;;;;;;3.60;99.90;;;;;;5032793;28;20004;-66
2022/12/07 08:42:53;;;;;;;;;;;3.60;99.90;;;;;;5025923;28;20433;-66
2022/12/07 08:45:19;;;;;;;;;;;3.60;99.90;;;;;;5027701;28;20445;-66
2022/12/07 08:47:46;;;;;;;;;;;3.60;99.90;;;;;;5032265;28;19917;-67
2022/12/07 08:50:11;;;;;;;;;;;3.60;99.90;;;;;;5030759;28;19924;-67
2022/12/07 08:52:37;;;;;;;;;;;3.60;99.90;;;;;;5010430;28;19912;-68
2022/12/07 08:55:03;;;;;;;;;;;3.70;99.90;;;;;;5030849;28;19913;-67
2022/12/07 08:57:29;;;;;;;;;;;3.70;99.90;;;;;;5012191;28;19913;-66
2022/12/07 08:59:54;;;;;;;;;;;3.70;99.90;;;;;;5031752;28;19960;-67
2022/12/07 09:02:20;;;;;;;;;;;3.60;99.90;;;;;;5030733;28;19912;-66
2022/12/07 09:04:45;;;;;;;;;;;3.70;99.90;;;;;;5029083;28;19912;-67
2022/12/07 09:07:11;;;;;;;;;;;3.70;99.90;;;;;;5025556;28;20467;-66
2022/12/07 09:09:37;;;;;;;;;;;3.70;99.90;;;;;;5031110;28;19913;-68
2022/12/07 09:12:02;;;;;;;;;;;3.70;99.90;;;;;;5029639;28;19956;-66
2022/12/07 09:14:28;;;;;;;;;;;3.70;99.90;;;;;;5013460;28;19960;-66
2022/12/07 09:16:54;;;;;;;;;;;3.70;99.90;;;;;;5031415;28;19917;-65
2022/12/07 09:19:19;;;;;;;;;;;3.70;99.90;;;;;;5030160;28;20311;-66
2022/12/07 09:21:45;;;;;;;;;;;3.70;99.90;;;;;;5029870;28;20004;-68
2022/12/07 09:24:11;;;;;;;;;;;3.70;99.90;;;;;;5030032;28;19923;-67
2022/12/07 09:26:40;;;;;;;;;;;3.70;99.90;;;;;;5025773;28;19928;-69
2022/12/07 09:29:06;;;;;;;;;;;3.70;99.90;;;;;;5028073;28;19921;-67
2022/12/07 09:31:31;;;;;;;;;;;3.70;99.90;;;;;;5013681;28;19923;-67
2022/12/07 09:33:58;;;;;;;;;;;3.70;99.90;;;;;;5028762;28;19978;-66
2022/12/07 09:36:24;;;;;;;;;;;3.80;99.90;;;;;;5011362;28;19918;-65
2022/12/07 09:38:50;;;;;;;;;;;3.80;99.90;;;;;;5013323;28;20361;-67
2022/12/07 09:41:16;;;;;;;;;;;3.80;99.90;;;;;;5030580;28;19968;-67
2022/12/07 09:43:41;;;;;;;;;;;3.70;99.90;;;;;;5029760;28;19917;-68
2022/12/07 09:46:08;;;;;;;;;;;3.70;99.90;;;;;;5030118;28;19912;-68
2022/12/07 09:48:36;;;;;;;;;;;3.80;99.90;;;;;;5029608;28;19928;-67
2022/12/07 09:51:03;;;;;;;;;;;3.80;99.90;;;;;;5030254;28;19979;-67
2022/12/07 09:53:30;;;;;;;;;;;3.80;99.90;;;;;;5030036;28;19995;-68
2022/12/07 09:55:55;;;;;;;;;;;3.80;99.90;;;;;;5025992;28;19923;-67
2022/12/07 09:58:26;;;;;;;;;;;3.80;99.90;;;;;;5013776;28;19913;-66
2022/12/07 10:00:53;;;;;;;;;;;3.70;99.90;;;;;;5023526;28;19913;-67
2022/12/07 10:03:19;;;;;;;;;;;3.70;99.90;;;;;;5029918;28;20392;-67
2022/12/07 10:05:45;;;;;;;;;;;3.80;99.90;;;;;;5026750;28;19952;-68
2022/12/07 10:08:12;;;;;;;;;;;3.80;99.90;;;;;;5029842;28;19916;-67
2022/12/07 10:10:39;;;;;;;;;;;3.80;99.90;;;;;;5028671;28;20315;-68
2022/12/07 10:13:05;;;;;;;;;;;3.80;99.90;;;;;;5027226;28;20385;-66
2022/12/07 10:15:57;;;;;;;;;;;3.80;99.90;;;;;;5030476;28;19921;-68
2022/12/07 10:18:26;;;;;;;;;;;3.90;99.90;;;;;;5028207;28;20003;-68
2022/12/07 10:21:07;;;;;;;;;;;3.80;99.90;;;;;;5027155;28;20247;-67
2022/12/07 10:23:33;;;;;;;;;;;3.90;99.90;;;;;;5029287;28;19913;-67
2022/12/07 10:25:58;;;;;;;;;;;3.80;99.90;;;;;;5030414;28;20248;-67
2022/12/07 10:28:27;;;;;;;;;;;3.90;99.90;;;;;;5023464;28;19917;-67
2022/12/07 10:31:01;;;;;;;;;;;3.90;99.90;;;;;;5028268;28;19913;-69
2022/12/07 10:33:28;;;;;;;;;;;3.90;99.90;;;;;;5026167;28;19918;-65
2022/12/07 10:35:54;;;;;;;;;;;3.90;99.90;;;;;;5011472;28;20430;-67
2022/12/07 10:38:20;;;;;;;;;;;3.80;99.90;;;;;;5029122;28;20011;-66
2022/12/07 10:40:47;;;;;;;;;;;4.00;99.90;;;;;;5029073;28;19913;-66
2022/12/07 10:43:12;;;;;;;;;;;4.00;99.90;;;;;;5027733;28;19908;-67
2022/12/07 10:45:43;;;;;;;;;;;4.00;99.90;;;;;;5029853;28;20392;-66
2022/12/07 10:48:10;;;;;;;;;;;4.10;99.90;;;;;;5019295;28;19927;-67
2022/12/07 10:50:41;;;;;;;;;;;4.00;99.90;;;;;;5029581;28;19924;-66
2022/12/07 10:53:19;;;;;;;;;;;4.00;99.90;;;;;;5012337;28;19924;-67
2022/12/07 10:55:44;;;;;;;;;;;4.10;99.90;;;;;;5023306;28;19913;-66
2022/12/07 10:58:24;;;;;;;;;;;4.10;99.90;;;;;;5030243;28;20279;-66
2022/12/07 11:00:53;;;;;;;;;;;4.10;99.90;;;;;;5026789;28;20522;-66
2022/12/07 11:03:22;;;;;;;;;;;4.10;99.90;;;;;;5027972;28;20611;-66
2022/12/07 11:05:56;;;;;;;;;;;4.10;99.90;;;;;;5027056;28;19913;-67
2022/12/07 11:08:40;;;;;;;;;;;4.00;99.90;;;;;;5028582;28;20332;-65
2022/12/07 11:11:25;;;;;;;;;;;4.00;99.90;;;;;;5028403;28;19979;-67
2022/12/07 11:13:54;;;;;;;;;;;4.00;99.90;;;;;;5040849;28;19917;-67
2022/12/07 11:16:25;;;;;;;;;;;4.00;99.90;;;;;;5028830;28;20015;-65
2022/12/07 11:18:51;;;;;;;;;;;4.00;99.90;;;;;;5028086;28;19912;-66
2022/12/07 11:21:35;;;;;;;;;;;4.10;99.90;;;;;;5026271;28;19909;-65
2022/12/07 11:24:02;;;;;;;;;;;4.00;99.90;;;;;;5028466;28;19913;-65
2022/12/07 11:26:40;;;;;;;;;;;4.10;99.90;;;;;;5028400;28;19920;-65
2022/12/07 11:29:27;;;;;;;;;;;4.10;99.90;;;;;;5008298;28;19913;-65
2022/12/07 11:32:11;;;;;;;;;;;4.10;99.90;;;;;;5027379;28;19912;-65
2022/12/07 11:34:44;;;;;;;;;;;4.20;99.90;;;;;;5028191;28;20353;-66
2022/12/07 11:37:16;;;;;;;;;;;4.20;99.90;;;;;;5027747;28;20331;-65
2022/12/07 11:39:49;;;;;;;;;;;4.20;99.90;;;;;;5028403;28;19913;-66
2022/12/07 11:42:22;;;;;;;;;;;4.20;99.90;;;;;;5028562;28;20068;-65
2022/12/07 11:45:07;;;;;;;;;;;4.20;99.90;;;;;;5009009;28;19925;-66
2022/12/07 11:47:40;;;;;;;;;;;4.30;99.90;;;;;;5024004;28;20278;-66
2022/12/07 11:50:09;;;;;;;;;;;4.40;99.90;;;;;;5028049;28;19913;-66
2022/12/07 11:52:44;;;;;;;;;;;4.40;99.90;;;;;;5025443;28;19919;-67
2022/12/07 11:55:16;;;;;;;;;;;4.40;99.90;;;;;;5028843;28;19913;-66
2022/12/07 11:57:42;;;;;;;;;;;4.50;99.90;;;;;;5026706;28;20383;-65
2022/12/07 12:00:15;;;;;;;;;;;4.40;99.90;;;;;;5026832;28;19913;-66
2022/12/07 12:02:47;;;;;;;;;;;4.50;99.90;;;;;;5024215;28;19913;-65
2022/12/07 12:05:12;;;;;;;;;;;4.40;99.90;;;;;;5028400;28;19912;-66
2022/12/07 12:07:38;;;;;;;;;;;4.50;99.90;;;;;;5022696;28;20361;-65
2022/12/07 12:10:05;;;;;;;;;;;4.50;99.90;;;;;;5028519;28;19927;-67
2022/12/07 12:12:46;;;;;;;;;;;4.60;99.90;;;;;;5027889;28;20260;-65
2022/12/07 12:15:35;;;;;;;;;;;4.60;99.90;;;;;;5022941;28;19920;-66
2022/12/07 12:18:01;;;;;;;;;;;4.50;99.90;;;;;;5028266;28;19959;-65
2022/12/07 12:20:31;;;;;;;;;;;4.40;99.90;;;;;;5028662;28;20386;-66
2022/12/07 12:22:56;;;;;;;;;;;4.40;99.90;;;;;;5025849;28;19959;-67
2022/12/07 12:25:22;;;;;;;;;;;4.50;99.90;;;;;;5028937;28;19971;-67
2022/12/07 12:27:48;;;;;;;;;;;4.40;99.90;;;;;;5023779;28;19993;-66
2022/12/07 12:30:24;;;;;;;;;;;4.40;99.90;;;;;;5011601;28;19921;-66
2022/12/07 12:32:50;;;;;;;;;;;4.40;99.90;;;;;;5027772;28;19923;-66
2022/12/07 12:35:32;;;;;;;;;;;4.40;99.90;;;;;;5024385;28;19913;-67
2022/12/07 12:38:16;;;;;;;;;;;4.40;99.90;;;;;;5025522;28;19931;-67
2022/12/07 12:40:42;;;;;;;;;;;4.40;99.90;;;;;;5028177;28;20663;-66
2022/12/07 12:43:28;;;;;;;;;;;4.40;99.90;;;;;;5030868;28;20007;-66
2022/12/07 12:46:13;;;;;;;;;;;4.50;99.90;;;;;;5024682;28;19913;-66
2022/12/07 12:48:39;;;;;;;;;;;4.40;99.90;;;;;;5026922;28;19917;-66
2022/12/07 12:51:24;;;;;;;;;;;4.40;99.90;;;;;;5012978;28;20437;-65
2022/12/07 12:53:50;;;;;;;;;;;4.40;99.90;;;;;;5024956;28;19912;-66
2022/12/07 12:56:23;;;;;;;;;;;4.30;99.90;;;;;;5014338;28;19924;-67
2022/12/07 12:58:49;;;;;;;;;;;4.30;99.90;;;;;;5031285;28;20027;-66
2022/12/07 13:01:27;;;;;;;;;;;4.30;99.90;;;;;;5029143;28;20098;-67
2022/12/07 13:03:53;;;;;;;;;;;4.40;99.90;;;;;;5013146;28;19913;-66
2022/12/07 13:06:35;;;;;;;;;;;4.30;99.90;;;;;;5022981;28;19960;-67
2022/12/07 13:09:00;;;;;;;;;;;4.30;99.90;;;;;;5031542;28;19912;-65
2022/12/07 13:11:31;;;;;;;;;;;4.40;99.90;;;;;;5029609;28;19913;-67
2022/12/07 13:14:15;;;;;;;;;;;4.30;99.90;;;;;;5007576;28;19913;-65
2022/12/07 13:16:41;;;;;;;;;;;4.30;99.90;;;;;;5030461;28;19913;-65
2022/12/07 13:19:25;;;;;;;;;;;4.40;99.90;;;;;;5030166;28;20365;-66
2022/12/07 13:21:51;;;;;;;;;;;4.40;99.90;;;;;;5028339;28;19998;-65
2022/12/07 13:24:16;;;;;;;;;;;4.30;99.90;;;;;;5026067;28;19948;-65
2022/12/07 13:26:42;;;;;;;;;;;4.30;99.90;;;;;;5030246;28;19917;-67
2022/12/07 13:29:19;;;;;;;;;;;4.30;99.90;;;;;;5023867;28;19920;-67
2022/12/07 13:31:52;;;;;;;;;;;4.30;99.90;;;;;;5029064;28;19936;-66
2022/12/07 13:34:34;;;;;;;;;;;4.30;99.90;;;;;;5025874;28;19923;-65
2022/12/07 13:37:00;;;;;;;;;;;4.30;99.90;;;;;;5009494;28;19913;-66
2022/12/07 13:39:25;;;;;;;;;;;4.30;99.90;;;;;;5030356;28;19978;-67
2022/12/07 13:41:52;;;;;;;;;;;4.20;99.90;;;;;;5025423;28;20259;-66
2022/12/07 13:44:17;;;;;;;;;;;4.10;99.90;;;;;;5027745;28;20267;-66
2022/12/07 13:46:54;;;;;;;;;;;4.10;99.90;;;;;;5030298;28;19913;-68
2022/12/07 13:49:36;;;;;;;;;;;4.20;99.90;;;;;;5030007;28;19935;-67
2022/12/07 13:52:18;;;;;;;;;;;4.10;99.90;;;;;;5022724;28;19913;-66
2022/12/07 13:54:48;;;;;;;;;;;4.20;99.90;;;;;;5013966;28;20330;-66
2022/12/07 13:57:18;;;;;;;;;;;4.10;99.90;;;;;;5030305;28;20316;-68
2022/12/07 13:59:43;;;;;;;;;;;4.20;99.90;;;;;;5012433;28;20004;-66
2022/12/07 14:02:19;;;;;;;;;;;4.20;99.90;;;;;;5023237;28;20054;-66
2022/12/07 14:04:45;;;;;;;;;;;4.30;99.90;;;;;;5013178;28;19912;-66
2022/12/07 14:07:20;;;;;;;;;;;4.20;99.90;;;;;;5029289;28;19974;-67
2022/12/07 14:09:56;;;;;;;;;;;4.20;99.90;;;;;;5027361;28;19939;-66
2022/12/07 14:12:21;;;;;;;;;;;4.20;99.90;;;;;;5029528;28;19913;-65
2022/12/07 14:14:47;;;;;;;;;;;4.20;99.90;;;;;;5028260;28;19924;-66
2022/12/07 14:17:17;;;;;;;;;;;4.20;99.90;;;;;;5012567;28;20639;-65
2022/12/07 14:19:42;;;;;;;;;;;4.10;99.90;;;;;;5007375;28;19917;-66
2022/12/07 14:22:18;;;;;;;;;;;4.10;99.90;;;;;;5028122;28;19967;-65
2022/12/07 14:24:43;;;;;;;;;;;4.20;99.90;;;;;;5026509;28;19948;-65
2022/12/07 14:27:22;;;;;;;;;;;4.10;99.90;;;;;;4994889;28;19971;-65
2022/12/07 14:29:48;;;;;;;;;;;4.20;99.90;;;;;;5029297;28;20006;-67
2022/12/07 14:32:27;;;;;;;;;;;4.10;99.90;;;;;;5018069;28;19983;-68
2022/12/07 14:35:00;;;;;;;;;;;4.10;99.90;;;;;;5028892;28;19977;-67
2022/12/07 14:37:26;;;;;;;;;;;4.10;99.90;;;;;;5028972;28;20268;-66
2022/12/07 14:39:51;;;;;;;;;;;4.10;99.90;;;;;;5023157;28;19982;-67